createdAt,value
2023-05-19T00:00:50.487Z,99009.34
2023-05-19T00:01:53.329Z,99006.69
2023-05-19T00:02:56.242Z,99004.50
2023-05-19T00:04:02.141Z,98998.88
2023-05-19T00:05:04.091Z,99002.63
2023-05-19T00:06:08.602Z,99004.06
2023-05-19T00:07:11.327Z,99002.53
2023-05-19T00:08:16.674Z,98997.91
2023-05-19T00:09:18.365Z,99008.84
2023-05-19T00:10:20.271Z,99000.47
2023-05-19T00:11:22.915Z,99000.91
2023-05-19T00:12:24.631Z,98997.16
2023-05-19T00:13:27.518Z,98995.72
2023-05-19T00:14:29.551Z,98996.03
2023-05-19T00:15:31.480Z,98991.38
2023-05-19T00:16:34.401Z,98986.09
2023-05-19T00:17:38.324Z,98992.91
2023-05-19T00:18:40.721Z,99000.41
2023-05-19T00:19:45.077Z,98991.28
2023-05-19T00:20:46.870Z,98987.78
2023-05-19T00:21:48.423Z,98992.72
2023-05-19T00:22:51.104Z,98988.22
2023-05-19T00:23:52.599Z,98991.97
2023-05-19T00:24:56.825Z,98985.06
2023-05-19T00:25:58.269Z,98988.88
2023-05-19T00:27:02.816Z,98988.88
2023-05-19T00:28:04.526Z,98988.53
2023-05-19T00:29:06.076Z,98986.25
2023-05-19T00:30:12.608Z,98987.38
2023-05-19T00:31:14.363Z,98980.09
2023-05-19T00:32:21.893Z,98983.09
2023-05-19T00:33:23.426Z,98983.44
2023-05-19T00:34:24.899Z,98981.22
2023-05-19T00:35:26.551Z,98978.06
2023-05-19T00:36:28.085Z,98979.94
2023-05-19T00:37:29.549Z,98978.84
2023-05-19T00:38:32.173Z,98975.44
2023-05-19T00:39:33.662Z,98972.78
2023-05-19T00:40:35.994Z,98975.78
2023-05-19T00:41:37.557Z,98972.78
2023-05-19T00:42:39.138Z,98981.88
2023-05-19T00:43:40.672Z,98975.84
2023-05-19T00:44:42.403Z,98972.44
2023-05-19T00:45:44.100Z,98975.84
2023-05-19T00:46:45.640Z,98972.44
2023-05-19T00:47:47.226Z,98966.75
2023-05-19T00:48:48.700Z,98968.28
2023-05-19T00:49:50.229Z,98972.44
2023-05-19T00:50:53.731Z,98971.00
2023-05-19T00:51:55.817Z,98972.09
2023-05-19T00:52:57.938Z,98968.19
2023-05-19T00:54:00.322Z,98963.66
2023-05-19T00:55:02.488Z,98975.09
2023-05-19T00:56:04.239Z,98973.31
2023-05-19T00:57:06.010Z,98970.41
2023-05-19T00:58:10.872Z,98967.00
2023-05-19T00:59:12.482Z,98968.69
2023-05-19T01:00:14.827Z,98956.97
2023-05-19T01:01:17.325Z,98958.47
2023-05-19T01:02:19.259Z,98961.47
2023-05-19T01:03:21.415Z,98964.78
2023-05-19T01:04:25.521Z,98958.38
2023-05-19T01:05:26.994Z,98959.94
2023-05-19T01:06:29.699Z,98953.56
2023-05-19T01:07:31.204Z,98960.25
2023-05-19T01:08:34.168Z,98959.50
2023-05-19T01:09:35.775Z,98953.56
2023-05-19T01:10:37.829Z,98958.06
2023-05-19T01:11:39.344Z,98954.41
2023-05-19T01:12:41.089Z,98954.06
2023-05-19T01:13:43.345Z,98956.34
2023-05-19T01:14:45.647Z,98953.38
2023-05-19T01:16:07.037Z,98956.34
2023-05-19T01:17:40.346Z,98952.59
2023-05-19T01:18:49.874Z,98947.66
2023-05-19T01:20:05.066Z,98948.03
2023-05-19T01:21:22.973Z,98947.31
2023-05-19T01:22:42.905Z,98942.47
2023-05-19T01:24:13.298Z,98948.13
2023-05-19T01:25:33.061Z,98947.25
2023-05-19T01:27:05.095Z,98951.06
2023-05-19T01:28:37.098Z,98946.56
2023-05-19T01:29:56.895Z,98952.94
2023-05-19T01:31:00.966Z,98950.31
2023-05-19T01:32:04.664Z,98946.22
2023-05-19T01:33:08.981Z,98944.34
2023-05-19T01:34:12.211Z,98950.81
2023-05-19T01:35:16.768Z,98946.75
2023-05-19T01:36:19.830Z,98947.16
2023-05-19T01:37:21.764Z,98947.59
2023-05-19T01:38:25.439Z,98947.59
2023-05-19T01:39:28.336Z,98940.44
2023-05-19T01:40:30.627Z,98937.03
2023-05-19T01:41:33.786Z,98939.31
2023-05-19T01:42:37.902Z,98940.34
2023-05-19T01:43:40.367Z,98937.03
2023-05-19T01:44:42.712Z,98940.44
2023-05-19T01:45:45.520Z,98944.50
2023-05-19T01:46:47.573Z,98949.03
2023-05-19T01:47:55.683Z,98938.91
2023-05-19T01:48:58.289Z,98940.00
2023-05-19T01:49:59.791Z,98940.00
2023-05-19T01:51:01.840Z,98940.00
2023-05-19T01:52:03.626Z,98940.25
2023-05-19T01:53:05.299Z,98948.19
2023-05-19T01:54:06.908Z,98942.63
2023-05-19T01:55:09.306Z,98946.03
2023-05-19T01:56:11.274Z,98946.03
2023-05-19T01:57:12.772Z,98943.84
2023-05-19T01:58:20.717Z,98945.09
2023-05-19T01:59:37.040Z,98945.56
2023-05-19T02:01:00.423Z,98944.09
2023-05-19T02:02:07.398Z,98942.56
2023-05-19T02:03:47.068Z,98947.16
2023-05-19T02:04:57.434Z,98941.88
2023-05-19T02:06:15.282Z,98938.53
2023-05-19T02:07:35.916Z,98943.50
2023-05-19T02:08:48.420Z,98937.88
2023-05-19T02:10:03.833Z,98951.47
2023-05-19T02:11:32.046Z,98941.38
2023-05-19T02:12:38.920Z,98947.06
2023-05-19T02:13:44.300Z,98945.19
2023-05-19T02:14:49.248Z,98938.47
2023-05-19T02:15:53.297Z,98939.97
2023-05-19T02:16:57.863Z,98938.88
2023-05-19T02:18:00.388Z,98950.97
2023-05-19T02:19:02.008Z,98940.47
2023-05-19T02:20:04.638Z,98945.69
2023-05-19T02:21:06.103Z,98940.41
2023-05-19T02:22:07.577Z,98938.53
2023-05-19T02:23:09.168Z,98937.06
2023-05-19T02:24:10.962Z,98944.59
2023-05-19T02:25:12.618Z,98945.34
2023-05-19T02:26:14.100Z,98942.47
2023-05-19T02:27:15.565Z,98943.91
2023-05-19T02:28:17.396Z,98936.34
2023-05-19T02:29:20.103Z,98943.66
2023-05-19T02:30:21.621Z,98939.97
2023-05-19T02:31:23.104Z,98946.38
2023-05-19T02:32:24.582Z,98944.09
2023-05-19T02:33:27.513Z,98937.00
2023-05-19T02:34:28.918Z,98931.72
2023-05-19T02:35:30.309Z,98932.91
2023-05-19T02:36:37.651Z,98938.47
2023-05-19T02:37:39.741Z,98935.38
2023-05-19T02:38:41.263Z,98939.84
2023-05-19T02:39:43.523Z,98935.22
2023-05-19T02:40:44.978Z,98941.38
2023-05-19T02:41:46.429Z,98930.44
2023-05-19T02:42:47.887Z,98926.78
2023-05-19T02:43:49.312Z,98924.13
2023-05-19T02:44:51.553Z,98927.44
2023-05-19T02:45:53.114Z,98926.78
2023-05-19T02:46:54.674Z,98921.84
2023-05-19T02:47:56.886Z,98928.66
2023-05-19T02:48:58.412Z,98923.03
2023-05-19T02:49:59.869Z,98924.97
2023-05-19T02:51:01.565Z,98920.88
2023-05-19T02:52:03.932Z,98911.16
2023-05-19T02:53:05.432Z,98918.75
2023-05-19T02:54:07.490Z,98916.53
2023-05-19T02:55:09.144Z,98919.94
2023-05-19T02:56:11.039Z,98925.66
2023-05-19T02:57:12.535Z,98916.94
2023-05-19T02:58:14.048Z,98918.47
2023-05-19T02:59:15.819Z,98921.53
2023-05-19T03:00:17.368Z,98912.09
2023-05-19T03:01:21.336Z,98919.31
2023-05-19T03:02:22.837Z,98922.38
2023-05-19T03:03:24.626Z,98921.25
2023-05-19T03:04:26.178Z,98916.75
2023-05-19T03:05:27.665Z,98916.06
2023-05-19T03:06:29.888Z,98919.47
2023-05-19T03:07:31.366Z,98911.19
2023-05-19T03:08:32.822Z,98918.28
2023-05-19T03:09:34.267Z,98922.78
2023-05-19T03:10:36.338Z,98916.75
2023-05-19T03:11:37.819Z,98916.75
2023-05-19T03:12:39.324Z,98917.19
2023-05-19T03:13:41.098Z,98921.63
2023-05-19T03:14:43.775Z,98912.09
2023-05-19T03:15:45.262Z,98916.88
2023-05-19T03:16:46.854Z,98921.41
2023-05-19T03:17:48.785Z,98916.16
2023-05-19T03:18:51.168Z,98917.72
2023-05-19T03:19:52.675Z,98921.53
2023-05-19T03:20:54.192Z,98923.06
2023-05-19T03:21:56.510Z,98918.75
2023-05-19T03:22:58.058Z,98917.63
2023-05-19T03:23:59.532Z,98921.13
2023-05-19T03:25:01.084Z,98918.13
2023-05-19T03:26:04.254Z,98920.09
2023-05-19T03:27:06.027Z,98912.44
2023-05-19T03:28:07.524Z,98918.81
2023-05-19T03:29:09.058Z,98926.31
2023-05-19T03:30:11.314Z,98923.41
2023-05-19T03:31:13.413Z,98922.66
2023-05-19T03:32:15.049Z,98921.03
2023-05-19T03:33:17.120Z,98921.41
2023-05-19T03:34:18.804Z,98916.03
2023-05-19T03:35:20.490Z,98919.69
2023-05-19T03:36:22.676Z,98916.28
2023-05-19T03:37:24.262Z,98916.56
2023-05-19T03:38:25.813Z,98918.16
2023-05-19T03:39:27.330Z,98923.03
2023-05-19T03:40:28.825Z,98920.06
2023-05-19T03:41:30.290Z,98918.16
2023-05-19T03:42:31.820Z,98919.69
2023-05-19T03:43:33.302Z,98918.50
2023-05-19T03:44:34.938Z,98919.25
2023-05-19T03:45:36.503Z,98923.50
2023-05-19T03:46:38.172Z,98923.59
2023-05-19T03:47:39.706Z,98920.53
2023-05-19T03:48:41.388Z,98926.69
2023-05-19T03:49:42.886Z,98923.00
2023-05-19T03:50:44.565Z,98931.75
2023-05-19T03:51:46.192Z,98929.53
2023-05-19T03:52:48.859Z,98928.34
2023-05-19T03:53:50.324Z,98928.69
2023-05-19T03:54:52.958Z,98932.53
2023-05-19T03:55:55.536Z,98936.13
2023-05-19T03:56:57.231Z,98932.47
2023-05-19T03:57:58.762Z,98926.47
2023-05-19T03:59:00.258Z,98929.19
2023-05-19T04:00:02.222Z,98930.31
2023-05-19T04:01:03.761Z,98927.31
2023-05-19T04:02:05.590Z,98935.41
2023-05-19T04:03:08.204Z,98930.88
2023-05-19T04:04:10.053Z,98934.38
2023-05-19T04:05:11.675Z,98938.53
2023-05-19T04:06:13.392Z,98938.63
2023-05-19T04:07:14.858Z,98944.78
2023-05-19T04:08:16.362Z,98938.00
2023-05-19T04:09:19.383Z,98939.53
2023-05-19T04:10:21.665Z,98941.84
2023-05-19T04:11:23.164Z,98938.84
2023-05-19T04:12:24.668Z,98946.03
2023-05-19T04:13:26.237Z,98946.03
2023-05-19T04:14:27.781Z,98943.78
2023-05-19T04:15:29.371Z,98944.16
2023-05-19T04:16:31.327Z,98946.03
2023-05-19T04:17:33.027Z,98946.09
2023-05-19T04:18:34.557Z,98947.63
2023-05-19T04:19:36.134Z,98947.28
2023-05-19T04:20:37.924Z,98944.22
2023-05-19T04:21:39.417Z,98943.09
2023-05-19T04:22:40.892Z,98941.66
2023-05-19T04:23:42.391Z,98940.09
2023-05-19T04:24:43.887Z,98942.41
2023-05-19T04:25:45.854Z,98942.75
2023-05-19T04:26:47.477Z,98947.72
2023-05-19T04:27:49.075Z,98940.19
2023-05-19T04:28:50.586Z,98950.41
2023-05-19T04:29:52.729Z,98954.16
2023-05-19T04:30:55.183Z,98950.84
2023-05-19T04:32:00.951Z,98950.13
2023-05-19T04:33:04.881Z,98957.38
2023-05-19T04:34:08.021Z,98958.56
2023-05-19T04:35:09.546Z,98946.88
2023-05-19T04:36:11.795Z,98948.41
2023-05-19T04:37:14.171Z,98953.34
2023-05-19T04:38:18.873Z,98954.16
2023-05-19T04:39:21.498Z,98955.66
2023-05-19T04:40:24.172Z,98957.84
2023-05-19T04:41:25.653Z,98947.00
2023-05-19T04:42:33.028Z,98949.63
2023-05-19T04:43:34.591Z,98950.06
2023-05-19T04:44:38.061Z,98956.53
2023-05-19T04:45:42.853Z,98951.72
2023-05-19T04:46:46.145Z,98943.47
2023-05-19T04:47:48.230Z,98940.09
2023-05-19T04:48:50.666Z,98953.00
2023-05-19T04:49:55.646Z,98952.22
2023-05-19T04:50:58.172Z,98949.59
2023-05-19T04:51:59.667Z,98946.56
2023-05-19T04:53:01.135Z,98943.16
2023-05-19T04:54:04.022Z,98948.09
2023-05-19T04:55:05.988Z,98950.00
2023-05-19T04:56:08.091Z,98948.88
2023-05-19T04:57:13.015Z,98943.38
2023-05-19T04:58:14.528Z,98946.72
2023-05-19T04:59:16.036Z,98946.09
2023-05-19T05:00:19.196Z,98945.81
2023-05-19T05:01:25.902Z,98948.09
2023-05-19T05:02:28.169Z,98947.78
2023-05-19T05:03:30.974Z,98953.41
2023-05-19T05:04:32.746Z,98943.16
2023-05-19T05:05:35.131Z,98941.28
2023-05-19T05:06:38.418Z,98949.31
2023-05-19T05:07:39.931Z,98946.38
2023-05-19T05:08:42.640Z,98951.72
2023-05-19T05:09:44.198Z,98950.59
2023-05-19T05:10:45.925Z,98949.88
2023-05-19T05:11:47.632Z,98945.38
2023-05-19T05:12:49.950Z,98947.69
2023-05-19T05:13:51.807Z,98947.75
2023-05-19T05:14:53.603Z,98950.38
2023-05-19T05:15:56.260Z,98955.31
2023-05-19T05:16:58.267Z,98953.06
2023-05-19T05:18:00.385Z,98952.69
2023-05-19T05:19:02.584Z,98948.16
2023-05-19T05:20:06.641Z,98954.19
2023-05-19T05:21:08.790Z,98961.38
2023-05-19T05:22:10.624Z,98946.63
2023-05-19T05:23:16.692Z,98951.19
2023-05-19T05:24:18.511Z,98946.25
2023-05-19T05:25:20.617Z,98947.78
2023-05-19T05:26:26.433Z,98948.22
2023-05-19T05:27:27.943Z,98935.06
2023-05-19T05:28:29.796Z,98934.69
2023-05-19T05:29:31.294Z,98932.81
2023-05-19T05:30:34.623Z,98927.56
2023-05-19T05:31:36.987Z,98934.31
2023-05-19T05:32:38.693Z,98930.63
2023-05-19T05:33:40.621Z,98920.09
2023-05-19T05:34:42.452Z,98926.97
2023-05-19T05:35:43.980Z,98928.56
2023-05-19T05:36:45.556Z,98928.56
2023-05-19T05:37:47.017Z,98931.28
2023-05-19T05:38:48.665Z,98929.72
2023-05-19T05:39:50.245Z,98926.69
2023-05-19T05:40:51.883Z,98919.16
2023-05-19T05:41:53.356Z,98921.75
2023-05-19T05:42:59.122Z,98923.97
2023-05-19T05:44:04.280Z,98925.19
2023-05-19T05:45:06.784Z,98928.63
2023-05-19T05:46:08.349Z,98930.47
2023-05-19T05:47:11.842Z,98923.69
2023-05-19T05:48:13.813Z,98930.50
2023-05-19T05:49:15.670Z,98934.41
2023-05-19T05:50:17.845Z,98931.03
2023-05-19T05:51:22.292Z,98926.38
2023-05-19T05:52:29.723Z,98924.94
2023-05-19T05:53:33.718Z,98928.34
2023-05-19T05:54:35.566Z,98927.63
2023-05-19T05:55:37.221Z,98936.81
2023-05-19T05:56:39.264Z,98934.19
2023-05-19T05:57:41.966Z,98943.31
2023-05-19T05:58:44.017Z,98947.50
2023-05-19T05:59:47.095Z,98938.44
2023-05-19T06:00:49.367Z,98939.19
2023-05-19T06:01:51.106Z,98938.44
2023-05-19T06:02:52.662Z,98935.69
2023-05-19T06:03:54.276Z,98931.09
2023-05-19T06:04:56.126Z,98941.81
2023-05-19T06:05:57.897Z,98936.50
2023-05-19T06:07:01.755Z,98932.22
2023-05-19T06:08:03.989Z,98937.16
2023-05-19T06:09:05.496Z,98926.16
2023-05-19T06:10:09.032Z,98935.25
2023-05-19T06:11:10.682Z,98932.59
2023-05-19T06:12:12.264Z,98938.72
2023-05-19T06:13:13.886Z,98940.69
2023-05-19T06:14:15.497Z,98929.03
2023-05-19T06:15:17.089Z,98937.72
2023-05-19T06:16:18.633Z,98942.66
2023-05-19T06:17:20.166Z,98938.91
2023-05-19T06:18:21.728Z,98933.25
2023-05-19T06:19:25.355Z,98937.84
2023-05-19T06:20:26.975Z,98938.56
2023-05-19T06:21:28.515Z,98940.38
2023-05-19T06:22:30.120Z,98940.09
2023-05-19T06:23:31.646Z,98937.78
2023-05-19T06:24:33.104Z,98936.59
2023-05-19T06:25:34.921Z,98940.94
2023-05-19T06:26:36.450Z,98936.03
2023-05-19T06:27:38.054Z,98945.97
2023-05-19T06:28:39.527Z,98940.38
2023-05-19T06:29:41.064Z,98937.72
2023-05-19T06:30:42.553Z,98938.13
2023-05-19T06:31:44.180Z,98934.75
2023-05-19T06:32:46.182Z,98938.56
2023-05-19T06:33:47.691Z,98934.09
2023-05-19T06:34:54.461Z,98942.03
2023-05-19T06:35:56.201Z,98935.59
2023-05-19T06:36:57.731Z,98935.59
2023-05-19T06:37:59.304Z,98939.44
2023-05-19T06:39:02.594Z,98936.84
2023-05-19T06:40:05.678Z,98935.81
2023-05-19T06:41:07.202Z,98936.53
2023-05-19T06:42:08.714Z,98941.84
2023-05-19T06:43:10.456Z,98932.00
2023-05-19T06:44:12.258Z,98933.63
2023-05-19T06:45:13.822Z,98938.66
2023-05-19T06:46:17.660Z,98938.34
2023-05-19T06:47:19.740Z,98952.38
2023-05-19T06:48:21.181Z,98936.19
2023-05-19T06:49:23.140Z,98942.28
2023-05-19T06:50:25.487Z,98937.72
2023-05-19T06:51:27.232Z,98932.41
2023-05-19T06:52:28.704Z,98939.63
2023-05-19T06:53:30.834Z,98927.50
2023-05-19T06:54:32.583Z,98933.56
2023-05-19T06:55:37.061Z,98932.78
2023-05-19T06:56:42.977Z,98930.94
2023-05-19T06:57:44.469Z,98938.63
2023-05-19T06:58:46.011Z,98934.84
2023-05-19T06:59:47.859Z,98938.59
2023-05-19T07:00:49.320Z,98931.13
2023-05-19T07:01:50.929Z,98928.84
2023-05-19T07:02:52.641Z,98931.91
2023-05-19T07:03:54.238Z,98925.47
2023-05-19T07:04:57.783Z,98931.22
2023-05-19T07:05:59.409Z,98931.16
2023-05-19T07:07:01.053Z,98932.25
2023-05-19T07:08:02.665Z,98934.94
2023-05-19T07:09:05.531Z,98929.66
2023-05-19T07:10:07.997Z,98925.56
2023-05-19T07:11:09.561Z,98931.28
2023-05-19T07:12:11.084Z,98930.56
2023-05-19T07:13:12.586Z,98924.91
2023-05-19T07:14:14.092Z,98921.03
2023-05-19T07:15:15.763Z,98926.34
2023-05-19T07:16:17.293Z,98916.47
2023-05-19T07:17:18.896Z,98918.00
2023-05-19T07:18:20.599Z,98924.06
2023-05-19T07:19:22.715Z,98919.19
2023-05-19T07:20:24.280Z,98913.88
2023-05-19T07:21:25.770Z,98911.22
2023-05-19T07:22:27.497Z,98915.72
2023-05-19T07:23:29.038Z,98916.03
2023-05-19T07:24:31.503Z,98913.81
2023-05-19T07:25:33.382Z,98907.78
2023-05-19T07:26:34.852Z,98916.53
2023-05-19T07:27:37.010Z,98910.84
2023-05-19T07:28:43.526Z,98908.66
2023-05-19T07:29:44.996Z,98909.41
2023-05-19T07:30:46.450Z,98911.69
2023-05-19T07:31:48.053Z,98915.13
2023-05-19T07:32:49.663Z,98917.38
2023-05-19T07:33:54.356Z,98913.25
2023-05-19T07:34:56.549Z,98912.16
2023-05-19T07:35:58.050Z,98910.72
2023-05-19T07:36:59.670Z,98903.94
2023-05-19T07:38:01.297Z,98913.84
2023-05-19T07:39:02.902Z,98904.34
2023-05-19T07:40:07.212Z,98904.00
2023-05-19T07:41:08.679Z,98907.81
2023-05-19T07:42:10.198Z,98899.13
2023-05-19T07:43:11.735Z,98913.25
2023-05-19T07:44:13.220Z,98904.97
2023-05-19T07:45:15.107Z,98903.13
2023-05-19T07:46:16.753Z,98908.97
2023-05-19T07:47:18.360Z,98908.28
2023-05-19T07:48:22.433Z,98909.13
2023-05-19T07:49:23.938Z,98906.13
2023-05-19T07:50:25.861Z,98893.66
2023-05-19T07:51:27.369Z,98899.81
2023-05-19T07:52:28.950Z,98896.44
2023-05-19T07:53:30.673Z,98900.66
2023-05-19T07:54:32.240Z,98893.06
2023-05-19T07:55:34.090Z,98899.56
2023-05-19T07:56:35.777Z,98898.41
2023-05-19T07:57:37.716Z,98895.75
2023-05-19T07:58:39.248Z,98895.75
2023-05-19T07:59:40.855Z,98899.97
2023-05-19T08:00:46.169Z,98895.38
2023-05-19T08:01:47.767Z,98899.56
2023-05-19T08:02:49.308Z,98898.06
2023-05-19T08:03:51.134Z,98893.13
2023-05-19T08:04:53.194Z,98896.91
2023-05-19T08:05:58.164Z,98898.44
2023-05-19T08:06:59.838Z,98895.00
2023-05-19T08:08:01.891Z,98895.75
2023-05-19T08:09:03.797Z,98895.75
2023-05-19T08:10:05.736Z,98893.44
2023-05-19T08:11:07.661Z,98891.56
2023-05-19T08:12:09.154Z,98892.69
2023-05-19T08:13:10.811Z,98888.53
2023-05-19T08:14:12.696Z,98885.13
2023-05-19T08:15:14.602Z,98886.25
2023-05-19T08:16:16.356Z,98885.09
2023-05-19T08:17:18.029Z,98889.63
2023-05-19T08:18:20.147Z,98891.53
2023-05-19T08:19:21.867Z,98884.34
2023-05-19T08:20:24.733Z,98887.34
2023-05-19T08:21:26.241Z,98890.41
2023-05-19T08:22:28.139Z,98898.41
2023-05-19T08:23:29.803Z,98901.09
2023-05-19T08:24:33.888Z,98894.22
2023-05-19T08:25:35.805Z,98893.44
2023-05-19T08:26:37.939Z,98890.78
2023-05-19T08:27:39.718Z,98891.53
2023-05-19T08:28:41.379Z,98893.44
2023-05-19T08:29:43.412Z,98891.94
2023-05-19T08:30:44.947Z,98890.75
2023-05-19T08:31:46.493Z,98885.03
2023-05-19T08:32:48.815Z,98886.16
2023-05-19T08:33:51.204Z,98885.78
2023-05-19T08:34:53.002Z,98883.84
2023-05-19T08:35:57.993Z,98885.00
2023-05-19T08:36:59.821Z,98890.31
2023-05-19T08:38:01.349Z,98879.28
2023-05-19T08:39:03.310Z,98875.91
2023-05-19T08:40:06.026Z,98877.81
2023-05-19T08:41:07.563Z,98880.06
2023-05-19T08:42:09.946Z,98876.69
2023-05-19T08:43:11.814Z,98874.41
2023-05-19T08:44:13.390Z,98871.34
2023-05-19T08:45:15.669Z,98871.72
2023-05-19T08:46:17.724Z,98870.19
2023-05-19T08:47:20.049Z,98872.44
2023-05-19T08:48:22.471Z,98872.81
2023-05-19T08:49:32.508Z,98872.03
2023-05-19T08:50:39.223Z,98872.41
2023-05-19T08:51:50.498Z,98865.94
2023-05-19T08:53:12.750Z,98864.41
2023-05-19T08:54:29.330Z,98862.53
2023-05-19T08:55:44.305Z,98861.75
2023-05-19T08:56:46.577Z,98864.44
2023-05-19T08:57:52.090Z,98863.72
2023-05-19T08:58:56.526Z,98865.22
2023-05-19T08:59:59.369Z,98863.34
2023-05-19T09:01:01.899Z,98860.28
2023-05-19T09:02:04.682Z,98853.47
2023-05-19T09:03:18.283Z,98860.28
2023-05-19T09:04:28.382Z,98864.47
2023-05-19T09:05:32.675Z,98860.28
2023-05-19T09:06:34.918Z,98859.53
2023-05-19T09:07:37.882Z,98856.13
2023-05-19T09:08:39.831Z,98850.78
2023-05-19T09:09:43.897Z,98856.13
2023-05-19T09:10:45.903Z,98858.00
2023-05-19T09:11:47.505Z,98854.63
2023-05-19T09:12:49.760Z,98855.00
2023-05-19T09:13:51.457Z,98847.78
2023-05-19T09:14:53.171Z,98858.03
2023-05-19T09:15:56.915Z,98857.25
2023-05-19T09:16:58.664Z,98855.38
2023-05-19T09:18:18.530Z,98850.81
2023-05-19T09:19:21.296Z,98855.38
2023-05-19T09:20:23.410Z,98857.28
2023-05-19T09:21:31.120Z,98858.78
2023-05-19T09:22:35.824Z,98852.69
2023-05-19T09:23:37.465Z,98856.88
2023-05-19T09:24:40.440Z,98850.03
2023-05-19T09:25:52.275Z,98848.91
2023-05-19T09:26:57.915Z,98858.81
2023-05-19T09:28:01.437Z,98852.31
2023-05-19T09:29:03.253Z,98852.69
2023-05-19T09:30:09.278Z,98845.47
2023-05-19T09:31:11.537Z,98851.19
2023-05-19T09:32:20.533Z,98851.59
2023-05-19T09:33:22.239Z,98848.97
2023-05-19T09:34:25.124Z,98845.16
2023-05-19T09:35:26.665Z,98847.47
2023-05-19T09:36:31.087Z,98851.25
2023-05-19T09:37:32.669Z,98852.78
2023-05-19T09:38:36.234Z,98854.31
2023-05-19T09:39:38.696Z,98850.09
2023-05-19T09:40:40.251Z,98853.19
2023-05-19T09:41:42.423Z,98852.78
2023-05-19T09:42:44.384Z,98847.81
2023-05-19T09:43:54.691Z,98853.56
2023-05-19T09:45:01.458Z,98839.84
2023-05-19T09:46:08.125Z,98843.66
2023-05-19T09:47:10.445Z,98834.91
2023-05-19T09:48:12.697Z,98834.16
2023-05-19T09:49:18.573Z,98837.97
2023-05-19T09:50:20.467Z,98831.09
2023-05-19T09:51:22.270Z,98841.38
2023-05-19T09:52:24.127Z,98837.94
2023-05-19T09:53:25.716Z,98844.41
2023-05-19T09:54:28.394Z,98849.38
2023-05-19T09:55:30.441Z,98848.59
2023-05-19T09:56:34.789Z,98845.16
2023-05-19T09:57:37.286Z,98848.22
2023-05-19T09:58:42.161Z,98841.75
2023-05-19T09:59:44.719Z,98839.47
2023-05-19T10:00:47.609Z,98842.13
2023-05-19T10:01:49.209Z,98839.84
2023-05-19T10:02:51.033Z,98844.03
2023-05-19T10:03:53.474Z,98845.19
2023-05-19T10:04:55.446Z,98835.66
2023-05-19T10:05:57.797Z,98842.13
2023-05-19T10:06:59.803Z,98837.94
2023-05-19T10:08:07.164Z,98842.13
2023-05-19T10:09:08.830Z,98828.81
2023-05-19T10:10:13.261Z,98829.56
2023-05-19T10:11:16.132Z,98826.94
2023-05-19T10:12:18.052Z,98827.28
2023-05-19T10:13:21.410Z,98830.34
2023-05-19T10:14:27.693Z,98823.88
2023-05-19T10:15:29.656Z,98821.97
2023-05-19T10:16:32.961Z,98810.94
2023-05-19T10:17:35.698Z,98809.03
2023-05-19T10:18:39.947Z,98810.56
2023-05-19T10:19:43.925Z,98808.66
2023-05-19T10:20:47.565Z,98806.34
2023-05-19T10:21:50.073Z,98808.59
2023-05-19T10:22:51.680Z,98812.00
2023-05-19T10:23:53.256Z,98808.94
2023-05-19T10:24:56.072Z,98805.81
2023-05-19T10:25:59.506Z,98803.16
2023-05-19T10:27:05.505Z,98802.72
2023-05-19T10:28:15.046Z,98803.47
2023-05-19T10:29:21.176Z,98802.31
2023-05-19T10:30:28.450Z,98810.00
2023-05-19T10:31:33.848Z,98801.22
2023-05-19T10:32:39.126Z,98808.13
2023-05-19T10:33:55.843Z,98797.06
2023-05-19T10:35:15.631Z,98797.06
2023-05-19T10:36:45.690Z,98794.75
2023-05-19T10:38:34.037Z,98789.81
2023-05-19T10:39:36.260Z,98781.44
2023-05-19T10:40:43.748Z,98785.25
2023-05-19T10:41:58.875Z,98792.09
2023-05-19T10:43:17.662Z,98784.06
2023-05-19T10:44:44.200Z,98785.94
2023-05-19T10:45:51.615Z,98783.25
2023-05-19T10:46:55.627Z,98766.84
2023-05-19T10:47:58.292Z,98775.47
2023-05-19T10:49:00.052Z,98773.13
2023-05-19T10:50:01.673Z,98776.09
2023-05-19T10:51:03.463Z,98776.06
2023-05-19T10:52:19.779Z,98778.31
2023-05-19T10:53:22.805Z,98777.16
2023-05-19T10:54:46.917Z,98772.66
2023-05-19T10:56:05.025Z,98774.56
2023-05-19T10:57:07.196Z,98779.09
2023-05-19T10:58:08.731Z,98776.81
2023-05-19T10:59:31.156Z,98777.56
2023-05-19T11:00:32.858Z,98772.22
2023-05-19T11:01:35.631Z,98779.47
2023-05-19T11:02:42.384Z,98774.16
2023-05-19T11:03:54.873Z,98775.69
2023-05-19T11:05:09.116Z,98783.25
2023-05-19T11:06:30.761Z,98780.56
2023-05-19T11:07:32.376Z,98778.66
2023-05-19T11:08:34.915Z,98775.22
2023-05-19T11:09:43.147Z,98781.25
2023-05-19T11:10:46.198Z,98774.75
2023-05-19T11:11:49.700Z,98778.53
2023-05-19T11:12:52.390Z,98765.91
2023-05-19T11:13:55.360Z,98764.38
2023-05-19T11:14:58.119Z,98770.84
2023-05-19T11:16:07.294Z,98771.97
2023-05-19T11:17:14.416Z,98762.72
2023-05-19T11:18:16.275Z,98771.88
2023-05-19T11:19:32.206Z,98774.19
2023-05-19T11:20:39.082Z,98772.34
2023-05-19T11:21:57.893Z,98763.97
2023-05-19T11:23:33.497Z,98767.06
2023-05-19T11:24:44.672Z,98767.94
2023-05-19T11:25:51.508Z,98764.97
2023-05-19T11:26:54.814Z,98766.91
2023-05-19T11:27:56.804Z,98765.41
2023-05-19T11:28:58.383Z,98768.50
2023-05-19T11:30:15.154Z,98766.56
2023-05-19T11:31:16.806Z,98761.19
2023-05-19T11:32:21.361Z,98758.88
2023-05-19T11:33:27.357Z,98764.56
2023-05-19T11:34:30.792Z,98761.53
2023-05-19T11:35:35.394Z,98752.72
2023-05-19T11:36:39.983Z,98760.34
2023-05-19T11:37:42.649Z,98758.00
2023-05-19T11:38:45.360Z,98759.13
2023-05-19T11:39:47.557Z,98752.59
2023-05-19T11:40:52.682Z,98753.00
2023-05-19T11:41:56.055Z,98746.81
2023-05-19T11:42:58.159Z,98752.53
2023-05-19T11:43:59.755Z,98753.25
2023-05-19T11:45:01.479Z,98752.03
2023-05-19T11:46:02.994Z,98748.25
2023-05-19T11:47:08.318Z,98742.94
2023-05-19T11:48:13.049Z,98745.31
2023-05-19T11:49:15.635Z,98737.34
2023-05-19T11:50:17.272Z,98745.28
2023-05-19T11:51:21.450Z,98742.16
2023-05-19T11:52:24.698Z,98744.38
2023-05-19T11:53:26.313Z,98749.66
2023-05-19T11:54:33.929Z,98743.56
2023-05-19T11:55:41.910Z,98735.09
2023-05-19T11:56:43.439Z,98736.16
2023-05-19T11:58:05.450Z,98733.84
2023-05-19T11:59:10.333Z,98734.16
2023-05-19T12:00:12.565Z,98740.88
2023-05-19T12:01:14.092Z,98737.00
2023-05-19T12:02:19.544Z,98731.44
2023-05-19T12:03:28.130Z,98730.97
2023-05-19T12:04:30.940Z,98735.41
2023-05-19T12:05:35.475Z,98732.63
2023-05-19T12:06:40.347Z,98728.34
2023-05-19T12:07:43.850Z,98722.56
2023-05-19T12:08:45.679Z,98718.09
2023-05-19T12:09:47.431Z,98713.22
2023-05-19T12:10:50.825Z,98722.19
2023-05-19T12:11:52.988Z,98714.88
2023-05-19T12:12:55.088Z,98709.03
2023-05-19T12:13:59.513Z,98713.16
2023-05-19T12:15:04.097Z,98714.41
2023-05-19T12:16:06.248Z,98709.09
2023-05-19T12:17:12.417Z,98706.50
2023-05-19T12:18:14.074Z,98703.03
2023-05-19T12:19:18.613Z,98712.22
2023-05-19T12:20:20.371Z,98706.34
2023-05-19T12:21:21.940Z,98708.56
2023-05-19T12:22:23.593Z,98707.00
2023-05-19T12:23:25.459Z,98711.22
2023-05-19T12:24:27.097Z,98707.09
2023-05-19T12:25:29.741Z,98711.00
2023-05-19T12:26:31.312Z,98705.75
2023-05-19T12:27:37.132Z,98702.00
2023-05-19T12:28:38.573Z,98716.09
2023-05-19T12:29:40.507Z,98713.81